Time;durP1;ratioP1;P1;durP2;ratioP2;P2;SDS_P1;SDS_P2;PMS_P1;PMS_P2;Temp;Humidity;BMP_temperature;BMP_pressure;BME280_temperature;BME280_humidity;BME280_pressure;Samples;Min_cycle;Max_cycle;Signal;HPM_P1;HPM_P2
2021/09/17 00:00:51;;;;;;;21.05;9.70;;;;;;;;;;5016794;28;20040;-57
2021/09/17 00:03:17;;;;;;;19.85;9.60;;;;;;;;;;5016170;28;20029;-57
2021/09/17 00:05:42;;;;;;;20.38;9.40;;;;;;;;;;5015781;28;20069;-57
2021/09/17 00:08:09;;;;;;;18.88;10.00;;;;;;;;;;5017045;28;20527;-57
2021/09/17 00:10:34;;;;;;;15.95;9.50;;;;;;;;;;5016198;28;20034;-57
2021/09/17 00:13:00;;;;;;;18.20;8.95;;;;;;;;;;5017285;28;20099;-57
2021/09/17 00:15:25;;;;;;;16.27;8.60;;;;;;;;;;5017320;28;20518;-57
2021/09/17 00:17:51;;;;;;;17.20;10.13;;;;;;;;;;5020626;28;20021;-57
2021/09/17 00:20:16;;;;;;;17.42;9.65;;;;;;;;;;5021100;28;20511;-57
2021/09/17 00:22:42;;;;;;;20.83;9.15;;;;;;;;;;5021045;28;20396;-57
2021/09/17 00:25:09;;;;;;;17.02;9.15;;;;;;;;;;5021939;28;20042;-57
2021/09/17 00:27:35;;;;;;;18.42;8.50;;;;;;;;;;5013948;28;20036;-57
2021/09/17 00:30:00;;;;;;;17.83;9.68;;;;;;;;;;5018048;28;20025;-57
2021/09/17 00:32:26;;;;;;;21.25;9.07;;;;;;;;;;5019483;28;20112;-57
2021/09/17 00:34:51;;;;;;;17.10;9.20;;;;;;;;;;5011120;28;20021;-57
2021/09/17 00:37:17;;;;;;;19.27;8.82;;;;;;;;;;5018093;28;20116;-57
2021/09/17 00:39:42;;;;;;;16.50;9.32;;;;;;;;;;5023205;28;20514;-57
2021/09/17 00:42:08;;;;;;;18.27;8.77;;;;;;;;;;5021247;28;20025;-57
2021/09/17 00:44:33;;;;;;;20.17;10.40;;;;;;;;;;5015203;28;20117;-57
2021/09/17 00:46:59;;;;;;;17.58;8.90;;;;;;;;;;5017937;28;20444;-57
2021/09/17 00:49:24;;;;;;;17.60;10.05;;;;;;;;;;5016433;28;20044;-57
2021/09/17 00:51:50;;;;;;;16.58;8.68;;;;;;;;;;5022845;28;20522;-57
2021/09/17 00:54:17;;;;;;;15.10;9.15;;;;;;;;;;5019866;28;20176;-57
2021/09/17 00:56:43;;;;;;;21.58;9.93;;;;;;;;;;5021636;28;20040;-57
2021/09/17 00:59:09;;;;;;;17.45;9.65;;;;;;;;;;5020894;28;20029;-56
2021/09/17 01:01:36;;;;;;;18.55;9.63;;;;;;;;;;5020026;28;20102;-57
2021/09/17 01:04:03;;;;;;;18.95;9.60;;;;;;;;;;5016814;28;21466;-56
2021/09/17 01:06:29;;;;;;;16.75;9.20;;;;;;;;;;5015583;28;20025;-57
2021/09/17 01:08:54;;;;;;;15.98;9.13;;;;;;;;;;5022088;28;20022;-58
2021/09/17 01:11:21;;;;;;;17.50;8.85;;;;;;;;;;5022932;28;20456;-58
2021/09/17 01:13:46;;;;;;;16.30;9.02;;;;;;;;;;5025587;28;20025;-57
2021/09/17 01:16:12;;;;;;;17.00;8.48;;;;;;;;;;5020030;28;20041;-58
2021/09/17 01:18:37;;;;;;;17.30;8.93;;;;;;;;;;5021873;28;20056;-56
2021/09/17 01:21:03;;;;;;;17.10;9.25;;;;;;;;;;5025141;28;20021;-56
2021/09/17 01:23:29;;;;;;;19.65;9.15;;;;;;;;;;5022230;28;20025;-56
2021/09/17 01:25:55;;;;;;;19.02;10.57;;;;;;;;;;5018412;28;20396;-58
2021/09/17 01:28:22;;;;;;;19.00;9.43;;;;;;;;;;5017140;28;20033;-58
2021/09/17 01:30:48;;;;;;;21.83;9.68;;;;;;;;;;5019581;28;20052;-57
2021/09/17 01:33:13;;;;;;;16.98;9.73;;;;;;;;;;5018598;28;20825;-57
2021/09/17 01:35:38;;;;;;;15.80;9.00;;;;;;;;;;5027308;28;20516;-58
2021/09/17 01:38:04;;;;;;;19.52;9.80;;;;;;;;;;5020660;28;20038;-57
2021/09/17 01:40:29;;;;;;;20.95;10.38;;;;;;;;;;5020641;28;20034;-57
2021/09/17 01:42:55;;;;;;;16.23;9.48;;;;;;;;;;5022322;28;20043;-57
2021/09/17 01:45:22;;;;;;;19.20;10.90;;;;;;;;;;5024412;28;20036;-58
2021/09/17 01:47:47;;;;;;;20.17;10.70;;;;;;;;;;5016711;28;20515;-57
2021/09/17 01:50:14;;;;;;;20.70;11.27;;;;;;;;;;5026600;28;20050;-57
2021/09/17 01:52:39;;;;;;;21.65;11.20;;;;;;;;;;5022029;28;20034;-57
2021/09/17 01:55:05;;;;;;;21.10;11.07;;;;;;;;;;5022610;28;20619;-57
2021/09/17 01:57:31;;;;;;;21.95;10.48;;;;;;;;;;5022879;28;20022;-57
2021/09/17 01:59:56;;;;;;;22.20;11.55;;;;;;;;;;5017009;28;20104;-57
2021/09/17 02:02:22;;;;;;;20.23;10.52;;;;;;;;;;5020981;28;20392;-56
2021/09/17 02:04:47;;;;;;;20.13;10.98;;;;;;;;;;5018345;28;20033;-57
2021/09/17 02:07:12;;;;;;;21.63;11.77;;;;;;;;;;5021356;28;20112;-57
2021/09/17 02:09:38;;;;;;;21.58;10.32;;;;;;;;;;5023734;28;20045;-58
2021/09/17 02:12:05;;;;;;;22.05;10.80;;;;;;;;;;5020362;28;20456;-57
2021/09/17 02:14:31;;;;;;;20.70;10.35;;;;;;;;;;5020595;28;20044;-57
2021/09/17 02:16:56;;;;;;;21.88;11.15;;;;;;;;;;5023563;28;20124;-57
2021/09/17 02:19:22;;;;;;;21.30;11.25;;;;;;;;;;5019987;28;20030;-58
2021/09/17 02:21:50;;;;;;;19.30;10.68;;;;;;;;;;5019271;28;20056;-57
2021/09/17 02:24:15;;;;;;;18.65;10.38;;;;;;;;;;5022746;28;20071;-57
2021/09/17 02:26:41;;;;;;;20.02;10.13;;;;;;;;;;5019984;28;20054;-57
2021/09/17 02:29:08;;;;;;;18.00;9.43;;;;;;;;;;5020570;28;20088;-57
2021/09/17 02:31:33;;;;;;;16.67;9.85;;;;;;;;;;5027526;28;20025;-57
2021/09/17 02:33:58;;;;;;;17.15;9.77;;;;;;;;;;5015810;28;20032;-57
2021/09/17 02:36:24;;;;;;;13.95;9.10;;;;;;;;;;5019207;28;20018;-57
2021/09/17 02:38:49;;;;;;;17.65;8.40;;;;;;;;;;5014578;28;20096;-57
2021/09/17 02:41:15;;;;;;;16.42;9.57;;;;;;;;;;5022605;28;20032;-57
2021/09/17 02:43:40;;;;;;;18.05;9.43;;;;;;;;;;5023393;28;20073;-57
2021/09/17 02:46:06;;;;;;;17.70;10.02;;;;;;;;;;5021785;28;20490;-57
2021/09/17 02:48:31;;;;;;;19.25;9.40;;;;;;;;;;5019013;28;20034;-57
2021/09/17 02:50:57;;;;;;;21.80;9.90;;;;;;;;;;5018212;28;20021;-57
2021/09/17 02:53:22;;;;;;;22.83;9.35;;;;;;;;;;5020326;28;20031;-57
2021/09/17 02:55:47;;;;;;;15.82;8.65;;;;;;;;;;5014308;28;20029;-57
2021/09/17 02:58:13;;;;;;;14.80;8.13;;;;;;;;;;5020568;28;20061;-57
2021/09/17 03:00:41;;;;;;;15.02;8.07;;;;;;;;;;5020833;28;20040;-57
2021/09/17 03:03:07;;;;;;;11.88;7.25;;;;;;;;;;5018065;28;20025;-57
2021/09/17 03:05:32;;;;;;;11.75;7.03;;;;;;;;;;5020108;28;20029;-57
2021/09/17 03:07:58;;;;;;;14.10;7.40;;;;;;;;;;5013905;28;20400;-57
2021/09/17 03:10:23;;;;;;;13.88;7.43;;;;;;;;;;5018515;28;20033;-57
2021/09/17 03:12:48;;;;;;;11.38;7.03;;;;;;;;;;5020697;28;20032;-57
2021/09/17 03:15:14;;;;;;;11.00;6.97;;;;;;;;;;5015845;28;20113;-57
2021/09/17 03:17:40;;;;;;;10.15;6.80;;;;;;;;;;5019917;28;20543;-57
2021/09/17 03:20:06;;;;;;;11.18;6.85;;;;;;;;;;5019455;28;20045;-57
2021/09/17 03:22:31;;;;;;;8.02;6.03;;;;;;;;;;5016979;28;20116;-57
2021/09/17 03:24:57;;;;;;;8.10;5.85;;;;;;;;;;5017546;28;20162;-57
2021/09/17 03:27:22;;;;;;;10.50;6.53;;;;;;;;;;5016215;28;20030;-57
2021/09/17 03:29:48;;;;;;;10.63;6.57;;;;;;;;;;5024527;28;20040;-57
2021/09/17 03:32:13;;;;;;;9.32;6.38;;;;;;;;;;5019030;28;20041;-57
2021/09/17 03:34:39;;;;;;;9.30;6.60;;;;;;;;;;5021846;28;20220;-57
2021/09/17 03:37:04;;;;;;;9.52;5.88;;;;;;;;;;5019765;28;20522;-57
2021/09/17 03:39:30;;;;;;;11.73;6.35;;;;;;;;;;5019101;28;20430;-57
2021/09/17 03:41:55;;;;;;;8.45;6.00;;;;;;;;;;5015151;28;20448;-57
2021/09/17 03:44:21;;;;;;;8.27;5.82;;;;;;;;;;5026719;28;20179;-58
2021/09/17 03:46:47;;;;;;;9.18;6.13;;;;;;;;;;5018140;28;20044;-57
2021/09/17 03:49:14;;;;;;;9.18;6.07;;;;;;;;;;5016764;28;20595;-57
2021/09/17 03:51:39;;;;;;;8.20;6.00;;;;;;;;;;5017965;28;20139;-57
2021/09/17 03:54:05;;;;;;;10.18;6.18;;;;;;;;;;5017137;28;20105;-57
2021/09/17 03:56:31;;;;;;;8.60;6.78;;;;;;;;;;5022012;28;20045;-57
2021/09/17 03:58:57;;;;;;;11.55;6.05;;;;;;;;;;5019635;28;20388;-57
2021/09/17 04:01:22;;;;;;;8.95;5.90;;;;;;;;;;5017332;28;20033;-57
2021/09/17 04:03:48;;;;;;;17.15;7.97;;;;;;;;;;5013064;28;20449;-57
2021/09/17 04:06:13;;;;;;;15.02;7.88;;;;;;;;;;5020283;28;20505;-57
2021/09/17 04:08:38;;;;;;;11.20;7.32;;;;;;;;;;5020160;28;20149;-57
2021/09/17 04:11:04;;;;;;;9.65;6.50;;;;;;;;;;5016147;28;20026;-57
2021/09/17 04:13:29;;;;;;;9.30;6.13;;;;;;;;;;5018207;28;20053;-57
2021/09/17 04:15:55;;;;;;;12.63;6.93;;;;;;;;;;5021397;28;20029;-57
2021/09/17 04:18:20;;;;;;;9.63;7.07;;;;;;;;;;5018360;28;20473;-57
2021/09/17 04:20:45;;;;;;;10.90;6.90;;;;;;;;;;5021646;28;20075;-57
2021/09/17 04:23:11;;;;;;;10.20;6.53;;;;;;;;;;5014282;28;20128;-58
2021/09/17 04:25:36;;;;;;;10.63;7.00;;;;;;;;;;5016622;28;20043;-57
2021/09/17 04:28:02;;;;;;;13.93;8.13;;;;;;;;;;5015486;28;20404;-57
2021/09/17 04:30:27;;;;;;;11.77;7.35;;;;;;;;;;5022340;28;20058;-57
2021/09/17 04:32:53;;;;;;;9.98;6.20;;;;;;;;;;5020364;28;20040;-57
2021/09/17 04:35:18;;;;;;;10.10;6.80;;;;;;;;;;5015491;28;20022;-58
2021/09/17 04:37:53;;;;;;;10.73;6.50;;;;;;;;;;5024128;28;20060;-57
2021/09/17 04:40:18;;;;;;;14.20;8.75;;;;;;;;;;5013013;28;20439;-57
2021/09/17 04:42:44;;;;;;;22.17;11.05;;;;;;;;;;5019469;28;20044;-59
2021/09/17 04:45:10;;;;;;;17.65;8.93;;;;;;;;;;5021616;28;20167;-58
2021/09/17 04:47:35;;;;;;;15.55;8.15;;;;;;;;;;5019301;28;20022;-58
2021/09/17 04:50:06;;;;;;;17.50;8.25;;;;;;;;;;5017151;28;20029;-56
2021/09/17 04:52:32;;;;;;;10.73;7.05;;;;;;;;;;5018299;28;20034;-57
2021/09/17 04:55:00;;;;;;;13.07;7.30;;;;;;;;;;5020855;28;20032;-58
2021/09/17 04:57:26;;;;;;;12.88;7.78;;;;;;;;;;5015817;28;20496;-56
2021/09/17 04:59:52;;;;;;;10.93;7.20;;;;;;;;;;5018936;28;20125;-56
2021/09/17 05:02:18;;;;;;;11.40;7.45;;;;;;;;;;5016252;28;20167;-56
2021/09/17 05:04:43;;;;;;;11.77;7.15;;;;;;;;;;5014962;28;20030;-56
2021/09/17 05:07:09;;;;;;;11.00;7.13;;;;;;;;;;5019674;28;20029;-57
2021/09/17 05:09:34;;;;;;;11.77;7.43;;;;;;;;;;5020338;28;20036;-57
2021/09/17 05:12:00;;;;;;;12.70;7.80;;;;;;;;;;5019850;28;20113;-56
2021/09/17 05:14:25;;;;;;;13.90;7.45;;;;;;;;;;5011330;28;20109;-56
2021/09/17 05:16:51;;;;;;;13.38;7.13;;;;;;;;;;5024748;28;20431;-56
2021/09/17 05:19:18;;;;;;;10.90;6.70;;;;;;;;;;5021612;28;20416;-56
2021/09/17 05:21:44;;;;;;;15.15;9.02;;;;;;;;;;5015237;28;20826;-56
2021/09/17 05:24:10;;;;;;;19.10;8.63;;;;;;;;;;5013638;28;20033;-56
2021/09/17 05:26:35;;;;;;;12.50;7.75;;;;;;;;;;5020380;28;20049;-56
2021/09/17 05:29:00;;;;;;;14.30;9.18;;;;;;;;;;5024904;28;20033;-56
2021/09/17 05:31:26;;;;;;;13.98;9.68;;;;;;;;;;5017015;28;20427;-56
2021/09/17 05:33:51;;;;;;;14.13;9.57;;;;;;;;;;5018053;28;20033;-56
2021/09/17 05:36:17;;;;;;;12.38;8.77;;;;;;;;;;5023489;28;20022;-56
2021/09/17 05:38:43;;;;;;;13.00;8.02;;;;;;;;;;5015135;28;20436;-56
2021/09/17 05:41:08;;;;;;;13.10;8.48;;;;;;;;;;5022958;28;20022;-56
2021/09/17 05:43:34;;;;;;;14.55;7.93;;;;;;;;;;5014316;28;20033;-56
2021/09/17 05:45:59;;;;;;;15.90;8.68;;;;;;;;;;5021813;28;20050;-56
2021/09/17 05:48:25;;;;;;;14.23;8.02;;;;;;;;;;5015858;28;20124;-56
2021/09/17 05:50:52;;;;;;;11.88;8.10;;;;;;;;;;5023863;28;20403;-57
2021/09/17 05:53:17;;;;;;;14.43;8.32;;;;;;;;;;5016076;28;20025;-56
2021/09/17 05:55:43;;;;;;;13.48;8.20;;;;;;;;;;5020898;28;20699;-56
2021/09/17 05:58:10;;;;;;;15.15;8.45;;;;;;;;;;5028764;28;20025;-56
2021/09/17 06:00:36;;;;;;;17.38;9.80;;;;;;;;;;5021042;28;20033;-56
2021/09/17 06:03:01;;;;;;;17.42;9.25;;;;;;;;;;5016723;28;20025;-55
2021/09/17 06:05:27;;;;;;;16.25;8.90;;;;;;;;;;5020430;28;20053;-56
2021/09/17 06:07:52;;;;;;;17.23;9.55;;;;;;;;;;5022492;28;20065;-56
2021/09/17 06:10:18;;;;;;;18.85;9.85;;;;;;;;;;5015132;28;20640;-56
2021/09/17 06:12:43;;;;;;;16.77;9.90;;;;;;;;;;5013879;28;20052;-56
2021/09/17 06:15:10;;;;;;;17.30;9.88;;;;;;;;;;5010954;28;20391;-56
2021/09/17 06:17:35;;;;;;;21.30;10.07;;;;;;;;;;5018798;28;20025;-56
2021/09/17 06:20:01;;;;;;;16.40;9.95;;;;;;;;;;5025277;28;20393;-56
2021/09/17 06:22:26;;;;;;;18.33;10.70;;;;;;;;;;5020348;28;20030;-56
2021/09/17 06:24:52;;;;;;;15.68;9.23;;;;;;;;;;5017928;28;20027;-56
2021/09/17 06:27:17;;;;;;;16.85;9.90;;;;;;;;;;5016389;28;20034;-56
2021/09/17 06:29:43;;;;;;;19.00;9.88;;;;;;;;;;5023429;28;20103;-56
2021/09/17 06:32:08;;;;;;;23.35;10.70;;;;;;;;;;5017657;28;20039;-56
2021/09/17 06:34:33;;;;;;;22.42;11.43;;;;;;;;;;5016732;28;20041;-56
2021/09/17 06:36:59;;;;;;;23.95;10.75;;;;;;;;;;5018305;28;20021;-56
2021/09/17 06:39:24;;;;;;;19.73;10.45;;;;;;;;;;5022308;28;20152;-57
2021/09/17 06:41:51;;;;;;;19.88;10.30;;;;;;;;;;5014297;28;20527;-56
2021/09/17 06:44:17;;;;;;;21.83;10.98;;;;;;;;;;5015374;28;20436;-56
2021/09/17 06:46:42;;;;;;;21.63;11.90;;;;;;;;;;5016712;28;20056;-57
2021/09/17 06:49:08;;;;;;;19.80;11.40;;;;;;;;;;5014121;28;20037;-56
2021/09/17 06:51:33;;;;;;;23.15;11.15;;;;;;;;;;5019954;28;20763;-56
2021/09/17 06:53:58;;;;;;;22.38;10.98;;;;;;;;;;5013842;28;20045;-56
2021/09/17 06:56:24;;;;;;;19.92;10.75;;;;;;;;;;5016060;28;20018;-56
2021/09/17 06:58:49;;;;;;;21.08;10.82;;;;;;;;;;5013708;28;20124;-57
2021/09/17 07:01:15;;;;;;;20.40;10.93;;;;;;;;;;5020075;28;20067;-56
2021/09/17 07:03:40;;;;;;;20.13;10.98;;;;;;;;;;5015556;28;20041;-56
2021/09/17 07:06:06;;;;;;;20.45;10.88;;;;;;;;;;5013858;28;20032;-56
2021/09/17 07:08:31;;;;;;;20.45;10.90;;;;;;;;;;5022399;28;20044;-56
2021/09/17 07:10:57;;;;;;;18.17;9.75;;;;;;;;;;5021825;28;20441;-56
2021/09/17 07:13:23;;;;;;;21.60;11.65;;;;;;;;;;5013146;28;20061;-56
2021/09/17 07:15:48;;;;;;;18.40;11.07;;;;;;;;;;5018908;28;20029;-56
2021/09/17 07:18:14;;;;;;;20.88;10.70;;;;;;;;;;5014431;28;20036;-56
2021/09/17 07:20:40;;;;;;;24.40;10.93;;;;;;;;;;5017254;28;20033;-56
2021/09/17 07:23:06;;;;;;;19.52;11.20;;;;;;;;;;5012090;28;20037;-56
2021/09/17 07:25:32;;;;;;;17.35;10.20;;;;;;;;;;5013898;28;20112;-56
2021/09/17 07:27:58;;;;;;;19.17;10.80;;;;;;;;;;5019434;28;20021;-56
2021/09/17 07:30:23;;;;;;;21.05;10.27;;;;;;;;;;5013798;28;20066;-57
2021/09/17 07:32:52;;;;;;;16.42;10.18;;;;;;;;;;5021292;28;20026;-56
2021/09/17 07:35:18;;;;;;;16.85;10.20;;;;;;;;;;5014138;28;20025;-56
2021/09/17 07:37:44;;;;;;;18.50;9.82;;;;;;;;;;5017759;28;20945;-56
2021/09/17 07:40:13;;;;;;;18.90;10.00;;;;;;;;;;5024814;28;20049;-56
2021/09/17 07:42:39;;;;;;;16.02;9.80;;;;;;;;;;5024616;28;20036;-56
2021/09/17 07:45:05;;;;;;;17.63;9.68;;;;;;;;;;5017709;28;20166;-56
2021/09/17 07:47:32;;;;;;;16.27;10.25;;;;;;;;;;5020447;28;20045;-56
2021/09/17 07:49:58;;;;;;;17.90;10.43;;;;;;;;;;5011362;28;20487;-56
2021/09/17 07:52:24;;;;;;;17.70;10.00;;;;;;;;;;5016295;28;20029;-57
2021/09/17 07:54:49;;;;;;;19.00;10.85;;;;;;;;;;5013621;28;20481;-56
2021/09/17 07:57:14;;;;;;;18.73;11.00;;;;;;;;;;5018831;28;20151;-58
2021/09/17 07:59:40;;;;;;;17.58;11.07;;;;;;;;;;5015309;28;20025;-56
2021/09/17 08:02:05;;;;;;;18.85;10.52;;;;;;;;;;5022751;28;20030;-57
2021/09/17 08:04:31;;;;;;;17.13;10.43;;;;;;;;;;5014082;28;20025;-57
2021/09/17 08:06:56;;;;;;;19.90;10.43;;;;;;;;;;5012385;28;20026;-57
2021/09/17 08:09:22;;;;;;;18.85;10.63;;;;;;;;;;5016464;28;20037;-58
2021/09/17 08:11:47;;;;;;;20.00;10.70;;;;;;;;;;5020468;28;20037;-57
2021/09/17 08:14:13;;;;;;;16.00;9.93;;;;;;;;;;5015710;28;20029;-57
2021/09/17 08:16:38;;;;;;;15.68;9.40;;;;;;;;;;5017343;28;20017;-57
2021/09/17 08:19:04;;;;;;;16.80;10.07;;;;;;;;;;5016909;28;20034;-57
2021/09/17 08:21:30;;;;;;;18.63;10.18;;;;;;;;;;5016279;28;20029;-57
2021/09/17 08:23:55;;;;;;;17.15;8.88;;;;;;;;;;5015103;28;20167;-57
2021/09/17 08:26:21;;;;;;;14.55;8.43;;;;;;;;;;5020831;28;20025;-58
2021/09/17 08:28:46;;;;;;;14.60;8.63;;;;;;;;;;5027311;28;20021;-57
2021/09/17 08:31:12;;;;;;;13.45;8.68;;;;;;;;;;5013819;28;20489;-57
2021/09/17 08:33:37;;;;;;;13.35;8.43;;;;;;;;;;5016803;28;20029;-57
2021/09/17 08:36:03;;;;;;;12.85;7.90;;;;;;;;;;5020265;28;20039;-57
2021/09/17 08:38:29;;;;;;;15.32;7.90;;;;;;;;;;5011942;28;20381;-57
2021/09/17 08:40:56;;;;;;;12.23;7.88;;;;;;;;;;5011976;28;20120;-57
2021/09/17 08:43:22;;;;;;;12.35;7.57;;;;;;;;;;5016360;28;20420;-57
2021/09/17 08:45:48;;;;;;;15.65;8.20;;;;;;;;;;5025128;28;20116;-57
2021/09/17 08:48:17;;;;;;;12.15;8.32;;;;;;;;;;5014340;28;20168;-57
2021/09/17 08:50:44;;;;;;;14.32;8.57;;;;;;;;;;5022858;28;20246;-57
2021/09/17 08:53:10;;;;;;;14.10;8.48;;;;;;;;;;5016749;28;20041;-57
2021/09/17 08:55:36;;;;;;;15.80;8.38;;;;;;;;;;5011925;28;20037;-58
2021/09/17 08:58:02;;;;;;;13.77;9.07;;;;;;;;;;5016125;28;20030;-58
2021/09/17 09:00:27;;;;;;;13.00;8.32;;;;;;;;;;5015841;28;20121;-57
2021/09/17 09:02:57;;;;;;;12.80;8.27;;;;;;;;;;5016478;28;20395;-58
2021/09/17 09:05:26;;;;;;;;;;;;;;;;;;5019749;28;20104;-58
2021/09/17 09:07:52;;;;;;;15.95;8.52;;;;;;;;;;5020564;28;20272;-58
2021/09/17 09:10:17;;;;;;;16.13;8.82;;;;;;;;;;5016175;28;20049;-58
2021/09/17 09:12:51;;;;;;;16.58;8.48;;;;;;;;;;5017625;28;20297;-57
2021/09/17 09:15:16;;;;;;;17.70;7.43;;;;;;;;;;5016316;28;20026;-57
2021/09/17 09:17:43;;;;;;;13.70;9.02;;;;;;;;;;5027153;28;20446;-58
2021/09/17 09:20:34;;;;;;;14.27;8.70;;;;;;;;;;5021423;28;20055;-58
2021/09/17 09:23:17;;;;;;;14.75;8.00;;;;;;;;;;5018838;28;20048;-58
2021/09/17 09:25:59;;;;;;;15.15;8.77;;;;;;;;;;5020245;28;20519;-57
2021/09/17 09:28:33;;;;;;;17.00;8.75;;;;;;;;;;5018951;28;20033;-57
2021/09/17 09:31:07;;;;;;;13.60;9.05;;;;;;;;;;5017475;28;20028;-57
2021/09/17 09:33:38;;;;;;;14.85;8.05;;;;;;;;;;5021095;28;20029;-57
2021/09/17 09:36:08;;;;;;;15.52;8.60;;;;;;;;;;5024550;28;20024;-57
2021/09/17 09:38:49;;;;;;;13.30;7.60;;;;;;;;;;5020832;28;20431;-57
2021/09/17 09:41:26;;;;;;;13.05;7.85;;;;;;;;;;5016562;28;20452;-57
2021/09/17 09:44:01;;;;;;;13.68;7.97;;;;;;;;;;5020473;28;20591;-57
2021/09/17 09:46:37;;;;;;;12.25;8.20;;;;;;;;;;5016325;28;20403;-57
2021/09/17 09:49:03;;;;;;;14.02;8.85;;;;;;;;;;5020861;28;20029;-57
2021/09/17 09:51:42;;;;;;;14.88;9.20;;;;;;;;;;5020863;28;20030;-57
2021/09/17 09:54:09;;;;;;;11.60;8.07;;;;;;;;;;5022204;28;20025;-58
2021/09/17 09:56:37;;;;;;;15.50;10.23;;;;;;;;;;5019291;28;20036;-57
2021/09/17 09:59:04;;;;;;;20.27;12.77;;;;;;;;;;5020286;28;20041;-57
2021/09/17 10:01:32;;;;;;;18.00;11.80;;;;;;;;;;5016972;28;20065;-57
2021/09/17 10:03:58;;;;;;;16.13;10.15;;;;;;;;;;5016055;28;20033;-57
2021/09/17 10:06:25;;;;;;;20.25;12.95;;;;;;;;;;5019747;28;20256;-57
2021/09/17 10:08:54;;;;;;;24.63;13.95;;;;;;;;;;5019082;28;20060;-57
2021/09/17 10:11:21;;;;;;;23.00;14.30;;;;;;;;;;5019862;28;20438;-57
2021/09/17 10:13:48;;;;;;;27.38;15.18;;;;;;;;;;5018400;28;20053;-57
2021/09/17 10:16:16;;;;;;;22.45;13.88;;;;;;;;;;5016531;28;20018;-57
2021/09/17 10:18:43;;;;;;;22.33;13.38;;;;;;;;;;5023446;28;20025;-57
2021/09/17 10:21:10;;;;;;;17.38;11.57;;;;;;;;;;5026269;28;20036;-57
2021/09/17 10:23:38;;;;;;;19.40;11.73;;;;;;;;;;5019816;28;20032;-57
2021/09/17 10:26:06;;;;;;;20.60;14.25;;;;;;;;;;5018032;28;20041;-57
2021/09/17 10:28:33;;;;;;;19.00;12.50;;;;;;;;;;5019363;28;20037;-57
2021/09/17 10:31:13;;;;;;;21.38;13.32;;;;;;;;;;5026622;28;20037;-57
2021/09/17 10:33:39;;;;;;;18.17;11.57;;;;;;;;;;5019154;28;20087;-57
2021/09/17 10:36:05;;;;;;;15.70;10.38;;;;;;;;;;5024026;28;20017;-57
2021/09/17 10:38:32;;;;;;;15.45;9.98;;;;;;;;;;5022465;28;20038;-57
2021/09/17 10:41:03;;;;;;;15.88;10.13;;;;;;;;;;5016423;28;20609;-57
2021/09/17 10:43:34;;;;;;;15.05;9.68;;;;;;;;;;5016059;28;20040;-57
2021/09/17 10:46:29;;;;;;;14.63;10.80;;;;;;;;;;5018081;28;20021;-58
2021/09/17 10:48:58;;;;;;;16.20;10.02;;;;;;;;;;5018694;28;20116;-57
2021/09/17 10:51:31;;;;;;;18.92;12.43;;;;;;;;;;5024200;28;20037;-57
2021/09/17 10:53:58;;;;;;;19.50;11.65;;;;;;;;;;5014971;28;20037;-56
2021/09/17 10:56:25;;;;;;;14.43;11.10;;;;;;;;;;5019204;28;20018;-57
2021/09/17 10:59:20;;;;;;;17.25;10.80;;;;;;;;;;5015086;28;20296;-58
2021/09/17 11:02:01;;;;;;;15.27;9.95;;;;;;;;;;5019840;28;20313;-58
2021/09/17 11:04:33;;;;;;;17.52;9.95;;;;;;;;;;5010468;28;20135;-58
2021/09/17 11:07:17;;;;;;;12.20;8.05;;;;;;;;;;5021893;28;20512;-59
2021/09/17 11:09:45;;;;;;;15.50;9.40;;;;;;;;;;5021916;28;20405;-57
2021/09/17 11:12:17;;;;;;;12.57;8.70;;;;;;;;;;5015644;28;20099;-58
2021/09/17 11:14:43;;;;;;;13.23;9.13;;;;;;;;;;5018626;28;20029;-57
2021/09/17 11:17:08;;;;;;;12.88;8.55;;;;;;;;;;5020655;28;20737;-57
2021/09/17 11:19:34;;;;;;;12.48;8.43;;;;;;;;;;5021781;28;20404;-56
2021/09/17 11:22:06;;;;;;;12.77;8.65;;;;;;;;;;5022165;28;20029;-59
2021/09/17 11:24:36;;;;;;;12.07;8.20;;;;;;;;;;5012246;28;20021;-57
2021/09/17 11:27:02;;;;;;;12.55;7.30;;;;;;;;;;5018573;28;20029;-57
2021/09/17 11:29:27;;;;;;;8.88;7.10;;;;;;;;;;5022332;28;20087;-58
2021/09/17 11:31:56;;;;;;;8.32;6.80;;;;;;;;;;5016448;28;20057;-57
2021/09/17 11:34:24;;;;;;;7.43;5.50;;;;;;;;;;5020463;28;20500;-58
2021/09/17 11:36:55;;;;;;;10.18;5.80;;;;;;;;;;5019004;28;20033;-57
2021/09/17 11:39:25;;;;;;;10.45;7.32;;;;;;;;;;5012888;28;20075;-57
2021/09/17 11:41:58;;;;;;;7.30;5.90;;;;;;;;;;5019377;28;20026;-56
2021/09/17 11:44:44;;;;;;;7.10;5.40;;;;;;;;;;5021455;28;20025;-58
2021/09/17 11:47:31;;;;;;;8.68;6.18;;;;;;;;;;5014387;28;20029;-58
2021/09/17 11:49:59;;;;;;;6.55;5.85;;;;;;;;;;5017784;28;20017;-58
2021/09/17 11:52:24;;;;;;;8.15;5.97;;;;;;;;;;5021848;28;20108;-57
2021/09/17 11:55:06;;;;;;;6.55;5.43;;;;;;;;;;5015052;28;20507;-58
2021/09/17 11:57:36;;;;;;;6.95;5.80;;;;;;;;;;5022828;28;20116;-57
2021/09/17 12:00:22;;;;;;;6.50;5.70;;;;;;;;;;5019474;28;20078;-57
2021/09/17 12:02:54;;;;;;;8.80;6.03;;;;;;;;;;5020282;28;20037;-58
2021/09/17 12:05:22;;;;;;;8.85;5.38;;;;;;;;;;5021919;28;20448;-57
2021/09/17 12:07:51;;;;;;;8.23;5.28;;;;;;;;;;5020081;28;20029;-58
2021/09/17 12:10:25;;;;;;;7.80;6.18;;;;;;;;;;5016332;28;20423;-58
2021/09/17 12:12:50;;;;;;;7.43;5.60;;;;;;;;;;5020635;28;20037;-58
2021/09/17 12:15:54;;;;;;;8.52;5.78;;;;;;;;;;5018332;28;20037;-57
2021/09/17 12:18:22;;;;;;;6.10;5.50;;;;;;;;;;5005758;28;20064;-58
2021/09/17 12:20:59;;;;;;;6.93;5.60;;;;;;;;;;5013428;28;20026;-58
2021/09/17 12:23:40;;;;;;;7.97;5.88;;;;;;;;;;5015946;28;20291;-58
2021/09/17 12:26:09;;;;;;;8.30;5.25;;;;;;;;;;5018967;28;20124;-58
2021/09/17 12:28:35;;;;;;;;;;;;;;;;;;5020078;28;20026;-58
2021/09/17 12:31:00;;;;;;;7.03;5.50;;;;;;;;;;5019699;28;19913;-58
2021/09/17 12:33:29;;;;;;;7.45;5.35;;;;;;;;;;5019327;28;20036;-59
2021/09/17 12:35:56;;;;;;;9.38;6.10;;;;;;;;;;5013830;28;20022;-57
2021/09/17 12:38:25;;;;;;;8.38;5.28;;;;;;;;;;5017281;28;20056;-57
2021/09/17 12:40:54;;;;;;;5.70;4.72;;;;;;;;;;5018446;28;20030;-57
2021/09/17 12:43:31;;;;;;;6.40;5.00;;;;;;;;;;5018035;28;20037;-58
2021/09/17 12:46:04;;;;;;;9.15;6.13;;;;;;;;;;5016098;28;20025;-58
2021/09/17 12:48:32;;;;;;;6.60;5.47;;;;;;;;;;5019097;28;20404;-57
2021/09/17 12:50:58;;;;;;;6.85;5.50;;;;;;;;;;5023120;28;20025;-58
2021/09/17 12:53:23;;;;;;;5.60;5.03;;;;;;;;;;5017917;28;20040;-58
2021/09/17 12:56:02;;;;;;;5.10;4.60;;;;;;;;;;5015579;28;20041;-58
2021/09/17 12:58:30;;;;;;;6.37;5.07;;;;;;;;;;5019549;28;20072;-57
2021/09/17 13:00:57;;;;;;;6.47;4.97;;;;;;;;;;5023213;28;20096;-57
2021/09/17 13:03:23;;;;;;;6.07;4.50;;;;;;;;;;5020586;28;20099;-57
2021/09/17 13:05:54;;;;;;;6.38;4.85;;;;;;;;;;5015460;28;20037;-58
2021/09/17 13:08:19;;;;;;;7.53;5.30;;;;;;;;;;5023354;28;20032;-58
2021/09/17 13:10:46;;;;;;;5.80;4.57;;;;;;;;;;5022105;28;20029;-58
2021/09/17 13:13:12;;;;;;;11.18;5.18;;;;;;;;;;5019867;28;20065;-58
2021/09/17 13:15:39;;;;;;;5.72;4.95;;;;;;;;;;5021744;28;20041;-58
2021/09/17 13:18:08;;;;;;;9.48;5.07;;;;;;;;;;5025192;28;20095;-59
2021/09/17 13:20:39;;;;;;;7.88;5.13;;;;;;;;;;5017913;28;20033;-58
2021/09/17 13:23:05;;;;;;;7.55;5.18;;;;;;;;;;5017396;28;20033;-58
2021/09/17 13:25:32;;;;;;;6.63;5.65;;;;;;;;;;5017293;28;20535;-58
2021/09/17 13:27:59;;;;;;;8.10;5.53;;;;;;;;;;5018314;28;20427;-58
2021/09/17 13:30:27;;;;;;;6.05;5.43;;;;;;;;;;5022162;28;20250;-58
2021/09/17 13:32:53;;;;;;;7.07;5.03;;;;;;;;;;5016194;28;20377;-58
2021/09/17 13:35:22;;;;;;;5.68;4.90;;;;;;;;;;5015319;28;20041;-58
2021/09/17 13:37:49;;;;;;;5.90;5.00;;;;;;;;;;5020872;28;20031;-58
2021/09/17 13:40:17;;;;;;;5.20;4.70;;;;;;;;;;5022531;28;20026;-58
2021/09/17 13:42:43;;;;;;;5.17;4.60;;;;;;;;;;5023851;28;20021;-58
2021/09/17 13:45:11;;;;;;;7.20;5.53;;;;;;;;;;5019240;28;20308;-58
2021/09/17 13:47:37;;;;;;;9.77;5.63;;;;;;;;;;5020723;28;20415;-58
2021/09/17 13:50:04;;;;;;;12.65;5.05;;;;;;;;;;5020528;28;20056;-58
2021/09/17 13:52:30;;;;;;;12.27;6.00;;;;;;;;;;5021915;28;20044;-58
2021/09/17 13:54:55;;;;;;;7.07;5.25;;;;;;;;;;5017099;28;20041;-58
2021/09/17 13:57:20;;;;;;;7.80;5.20;;;;;;;;;;5021833;28;20079;-58
2021/09/17 13:59:46;;;;;;;8.88;5.55;;;;;;;;;;5021005;28;20026;-59
2021/09/17 14:02:12;;;;;;;7.10;4.93;;;;;;;;;;5020907;28;20112;-58
2021/09/17 14:04:37;;;;;;;6.88;5.38;;;;;;;;;;5026032;28;20124;-58
2021/09/17 14:07:03;;;;;;;6.82;5.60;;;;;;;;;;5022912;28;20106;-58
2021/09/17 14:09:29;;;;;;;8.07;5.63;;;;;;;;;;5020111;28;20112;-58
2021/09/17 14:11:54;;;;;;;11.25;5.90;;;;;;;;;;5024035;28;20101;-58
2021/09/17 14:14:20;;;;;;;6.32;5.40;;;;;;;;;;5027405;28;20029;-60
2021/09/17 14:16:46;;;;;;;5.53;4.78;;;;;;;;;;5016670;28;20033;-59
2021/09/17 14:19:12;;;;;;;7.43;4.72;;;;;;;;;;5021128;28;20021;-59
2021/09/17 14:21:38;;;;;;;6.80;5.03;;;;;;;;;;5024296;28;20030;-59
2021/09/17 14:24:04;;;;;;;5.93;5.32;;;;;;;;;;5017363;28;20160;-56
2021/09/17 14:26:30;;;;;;;6.57;5.07;;;;;;;;;;5026189;28;20048;-59
2021/09/17 14:28:56;;;;;;;9.50;5.70;;;;;;;;;;5027121;28;20030;-56
2021/09/17 14:31:22;;;;;;;8.40;4.90;;;;;;;;;;5019807;28;20525;-57